createdAt,value
2023-11-18T00:01:24.833Z,98648.00
2023-11-18T00:06:46.680Z,98662.00
2023-11-18T00:12:11.491Z,98664.00
2023-11-18T00:17:33.428Z,98665.00
2023-11-18T00:22:56.482Z,98667.00
2023-11-18T00:28:20.760Z,98674.00
2023-11-18T00:33:42.727Z,98686.00
2023-11-18T00:39:05.676Z,98676.00
2023-11-18T00:44:27.690Z,98694.00
2023-11-18T00:49:50.766Z,98687.00
2023-11-18T00:55:12.591Z,98698.00
2023-11-18T01:00:35.574Z,98695.00
2023-11-18T01:05:56.880Z,98705.00
2023-11-18T01:11:23.472Z,98700.00
2023-11-18T01:16:45.533Z,98693.00
2023-11-18T01:22:07.820Z,98705.00
2023-11-18T01:27:29.289Z,98698.00
2023-11-18T01:32:51.259Z,98709.00
2023-11-18T01:38:15.782Z,98714.00
2023-11-18T01:43:37.655Z,98706.00
2023-11-18T01:49:00.174Z,98702.00
2023-11-18T01:54:23.012Z,98715.00
2023-11-18T01:59:44.548Z,98714.00
2023-11-18T02:05:07.501Z,98720.00
2023-11-18T02:10:29.359Z,98716.00
2023-11-18T02:15:51.226Z,98717.00
2023-11-18T02:21:15.427Z,98728.00
2023-11-18T02:26:36.884Z,98722.00
2023-11-18T02:32:06.704Z,98735.00
2023-11-18T02:37:28.637Z,98735.00
2023-11-18T02:42:54.293Z,98741.00
2023-11-18T02:48:16.815Z,98749.00
2023-11-18T02:53:38.633Z,98750.00
2023-11-18T02:59:02.105Z,98752.00
2023-11-18T03:04:25.162Z,98741.00
2023-11-18T03:09:48.123Z,98736.00
2023-11-18T03:15:10.654Z,98751.00
2023-11-18T03:20:32.678Z,98754.00
2023-11-18T03:25:54.130Z,98749.00
2023-11-18T03:31:17.289Z,98750.00
2023-11-18T03:36:38.845Z,98758.00
2023-11-18T03:42:01.164Z,98769.00
2023-11-18T03:47:25.247Z,98770.00
2023-11-18T03:52:46.466Z,98781.00
2023-11-18T03:58:10.310Z,98776.00
2023-11-18T04:03:33.129Z,98780.00
2023-11-18T04:08:54.851Z,98780.00
2023-11-18T04:14:16.077Z,98785.00
2023-11-18T04:19:38.807Z,98796.00
2023-11-18T04:25:00.612Z,98786.00
2023-11-18T04:30:22.201Z,98792.00
2023-11-18T04:35:43.724Z,98800.00
2023-11-18T04:41:05.751Z,98808.00
2023-11-18T04:46:27.769Z,98812.00
2023-11-18T04:51:49.369Z,98802.00
2023-11-18T04:57:10.790Z,98807.00
2023-11-18T05:02:32.194Z,98808.00
2023-11-18T05:07:53.913Z,98812.00
2023-11-18T05:13:17.729Z,98802.00
2023-11-18T05:18:40.287Z,98806.00
2023-11-18T05:24:02.001Z,98796.00
2023-11-18T05:29:23.516Z,98784.00
2023-11-18T05:34:45.104Z,98797.00
2023-11-18T05:40:08.180Z,98800.00
2023-11-18T05:45:33.196Z,98803.00
2023-11-18T05:50:54.941Z,98812.00
2023-11-18T05:56:20.008Z,98816.00
2023-11-18T06:01:42.487Z,98812.00
2023-11-18T06:07:04.309Z,98805.00
2023-11-18T06:12:26.038Z,98806.00
2023-11-18T06:17:47.705Z,98811.00
2023-11-18T06:23:09.112Z,98812.00
2023-11-18T06:28:30.502Z,98809.00
2023-11-18T06:33:52.630Z,98802.00
2023-11-18T06:39:14.705Z,98791.00
2023-11-18T06:44:36.377Z,98807.00
2023-11-18T06:49:57.880Z,98810.00
2023-11-18T06:55:19.521Z,98816.00
2023-11-18T07:00:41.041Z,98814.00
2023-11-18T07:06:02.578Z,98826.00
2023-11-18T07:11:24.165Z,98826.00
2023-11-18T07:16:46.222Z,98823.00
2023-11-18T07:22:08.132Z,98828.00
2023-11-18T07:27:29.547Z,98841.00
2023-11-18T07:32:52.244Z,98862.00
2023-11-18T07:38:14.289Z,98866.00
2023-11-18T07:43:38.012Z,98865.00
2023-11-18T07:48:59.854Z,98858.00
2023-11-18T07:54:21.339Z,98859.00
2023-11-18T07:59:42.888Z,98872.00
2023-11-18T08:05:14.574Z,98878.00
2023-11-18T08:10:40.580Z,98879.00
2023-11-18T08:16:02.790Z,98886.00
2023-11-18T08:21:24.465Z,98893.00
2023-11-18T08:26:47.188Z,98887.00
2023-11-18T08:32:11.606Z,98892.00
2023-11-18T08:37:33.538Z,98895.00
2023-11-18T08:42:57.574Z,98889.00
2023-11-18T08:48:20.077Z,98894.00
2023-11-18T08:53:43.789Z,98898.00
2023-11-18T08:59:10.018Z,98892.00
2023-11-18T09:04:31.344Z,98878.00
2023-11-18T09:09:54.161Z,98892.00
2023-11-18T09:15:23.708Z,98901.00
2023-11-18T09:20:46.675Z,98898.00
2023-11-18T09:26:11.846Z,98904.00
2023-11-18T09:31:35.007Z,98917.00
2023-11-18T09:36:57.109Z,98918.00
2023-11-18T09:42:20.887Z,98905.00
2023-11-18T09:47:48.682Z,98911.00
2023-11-18T09:53:12.574Z,98899.00
2023-11-18T09:58:42.833Z,98918.00
2023-11-18T10:04:07.749Z,98917.00
2023-11-18T10:09:29.744Z,98921.00
2023-11-18T10:14:53.384Z,98921.00
2023-11-18T10:20:17.432Z,98923.00
2023-11-18T10:25:46.382Z,98924.00
2023-11-18T10:31:11.049Z,98915.00
2023-11-18T10:36:34.485Z,98880.00
2023-11-18T10:42:01.769Z,98887.00
2023-11-18T10:47:23.332Z,98879.00
2023-11-18T10:52:47.512Z,98877.00
2023-11-18T10:58:09.621Z,98885.00
2023-11-18T11:03:34.761Z,98891.00
2023-11-18T11:08:56.344Z,98897.00
2023-11-18T11:14:21.337Z,98904.00
2023-11-18T11:20:12.565Z,98889.00
2023-11-18T11:25:47.793Z,98892.00
2023-11-18T11:31:12.318Z,98883.00
2023-11-18T11:36:43.555Z,98887.00
2023-11-18T11:42:10.615Z,98883.00
2023-11-18T11:47:44.704Z,98872.00
2023-11-18T11:53:16.559Z,98862.00
2023-11-18T11:58:38.586Z,98860.00
2023-11-18T12:04:08.414Z,98842.00
2023-11-18T12:09:39.268Z,98829.00
2023-11-18T12:15:13.640Z,98828.00
2023-11-18T12:20:48.973Z,98815.00
2023-11-18T12:26:45.129Z,98797.00
2023-11-18T12:32:07.268Z,98785.00
2023-11-18T12:37:56.237Z,98765.00
2023-11-18T12:43:19.090Z,98764.00
2023-11-18T12:48:45.427Z,98760.00
2023-11-18T12:54:08.443Z,98759.00
2023-11-18T12:59:31.708Z,98753.00
2023-11-18T13:04:54.289Z,98737.00
2023-11-18T13:10:19.478Z,98728.00
2023-11-18T13:15:41.683Z,98741.00
2023-11-18T13:21:04.439Z,98753.00
2023-11-18T13:26:26.102Z,98771.00
2023-11-18T13:31:48.670Z,98770.00
2023-11-18T13:37:19.254Z,98766.00
2023-11-18T13:42:41.089Z,98761.00
2023-11-18T13:48:03.355Z,98775.00
2023-11-18T13:53:25.062Z,98762.00
2023-11-18T13:58:46.861Z,98757.00
2023-11-18T14:04:10.338Z,98765.00
2023-11-18T14:09:41.721Z,98759.00
2023-11-18T14:15:04.922Z,98755.00
2023-11-18T14:20:26.402Z,98746.00
2023-11-18T14:25:48.457Z,98743.00
2023-11-18T14:31:11.111Z,98741.00
2023-11-18T14:36:32.762Z,98729.00
2023-11-18T14:41:54.894Z,98717.00
2023-11-18T14:47:17.951Z,98719.00
2023-11-18T14:52:41.617Z,98707.00
2023-11-18T14:58:06.116Z,98701.00
2023-11-18T15:03:27.616Z,98711.00
2023-11-18T15:08:49.138Z,98715.00
2023-11-18T15:14:13.071Z,98695.00
2023-11-18T15:19:34.610Z,98699.00
2023-11-18T15:25:00.744Z,98664.00
2023-11-18T15:30:25.847Z,98660.00
2023-11-18T15:35:47.369Z,98664.00
2023-11-18T15:41:09.002Z,98657.00
2023-11-18T15:46:31.008Z,98650.00
2023-11-18T15:51:52.784Z,98636.00
2023-11-18T15:57:14.496Z,98648.00
2023-11-18T16:02:36.583Z,98636.00
2023-11-18T16:07:58.544Z,98617.00
2023-11-18T16:13:21.326Z,98622.00
2023-11-18T16:18:44.058Z,98623.00
2023-11-18T16:24:06.304Z,98624.00
2023-11-18T16:29:27.928Z,98617.00
2023-11-18T16:34:49.471Z,98617.00
2023-11-18T16:40:15.570Z,98608.00
2023-11-18T16:45:38.486Z,98602.00
2023-11-18T16:51:00.643Z,98590.00
2023-11-18T16:56:22.025Z,98598.00
2023-11-18T17:01:43.553Z,98603.00
2023-11-18T17:07:05.402Z,98600.00
2023-11-18T17:12:26.712Z,98582.00
2023-11-18T17:17:50.997Z,98586.00
2023-11-18T17:23:12.864Z,98580.00
2023-11-18T17:28:37.516Z,98579.00
2023-11-18T17:33:59.268Z,98572.00
2023-11-18T17:39:20.871Z,98552.00
2023-11-18T17:44:42.612Z,98538.00
2023-11-18T17:50:10.489Z,98559.00
2023-11-18T17:55:32.459Z,98548.00
2023-11-18T18:00:54.552Z,98544.00
2023-11-18T18:06:16.548Z,98540.00
2023-11-18T18:11:37.859Z,98518.00
2023-11-18T18:16:59.631Z,98506.00
2023-11-18T18:22:21.058Z,98499.00
2023-11-18T18:27:46.490Z,98496.00
2023-11-18T18:33:10.101Z,98497.00
2023-11-18T18:38:31.535Z,98490.00
2023-11-18T18:43:53.107Z,98474.00
2023-11-18T18:49:17.489Z,98467.00
2023-11-18T18:54:39.006Z,98440.00
2023-11-18T19:00:00.456Z,98442.00
2023-11-18T19:05:24.782Z,98427.00
2023-11-18T19:10:46.335Z,98432.00
2023-11-18T19:16:09.066Z,98419.00
2023-11-18T19:21:30.550Z,98407.00
2023-11-18T19:26:52.046Z,98417.00
2023-11-18T19:32:13.654Z,98410.00
2023-11-18T19:37:36.021Z,98417.00
2023-11-18T19:42:57.419Z,98403.00
2023-11-18T19:48:20.849Z,98383.00
2023-11-18T19:53:42.515Z,98382.00
2023-11-18T19:59:05.959Z,98383.00
2023-11-18T20:04:27.981Z,98367.00
2023-11-18T20:09:50.270Z,98361.00
2023-11-18T20:15:13.153Z,98361.00
2023-11-18T20:20:34.866Z,98350.00
2023-11-18T20:25:57.406Z,98347.00
2023-11-18T20:31:18.609Z,98345.00
2023-11-18T20:36:40.973Z,98341.00
2023-11-18T20:42:02.522Z,98347.00
2023-11-18T20:47:24.402Z,98333.00
2023-11-18T20:52:46.434Z,98329.00
2023-11-18T20:58:08.473Z,98326.00
2023-11-18T21:03:30.247Z,98312.00
2023-11-18T21:08:52.212Z,98306.00
2023-11-18T21:14:13.650Z,98282.00
2023-11-18T21:19:35.137Z,98283.00
2023-11-18T21:24:57.817Z,98303.00
2023-11-18T21:30:23.309Z,98283.00
2023-11-18T21:35:45.646Z,98258.00
2023-11-18T21:41:08.135Z,98246.00
2023-11-18T21:46:29.575Z,98229.00
2023-11-18T21:51:51.396Z,98237.00
2023-11-18T21:57:13.944Z,98231.00
2023-11-18T22:02:35.712Z,98227.00
2023-11-18T22:07:57.604Z,98212.00
2023-11-18T22:13:19.229Z,98191.00
2023-11-18T22:18:41.585Z,98190.00
2023-11-18T22:24:03.291Z,98162.00
2023-11-18T22:29:24.839Z,98151.00
2023-11-18T22:34:46.552Z,98152.00
2023-11-18T22:40:17.348Z,98148.00
2023-11-18T22:45:39.132Z,98117.00
2023-11-18T22:51:00.881Z,98131.00
2023-11-18T22:56:24.947Z,98113.00
2023-11-18T23:01:47.367Z,98115.00
2023-11-18T23:07:08.743Z,98088.00
2023-11-18T23:12:31.290Z,98069.00
2023-11-18T23:17:53.198Z,98047.00
2023-11-18T23:23:15.060Z,98018.00
2023-11-18T23:28:37.037Z,97990.00
2023-11-18T23:34:02.406Z,97982.00
2023-11-18T23:39:29.805Z,97968.00
2023-11-18T23:44:51.224Z,97940.00
2023-11-18T23:50:12.901Z,97932.00
2023-11-18T23:55:34.568Z,97917.00
